Time;durP1;ratioP1;P1;durP2;ratioP2;P2;SDS_P1;SDS_P2;PMS_P1;PMS_P2;Temp;Humidity;BMP_temperature;BMP_pressure;BME280_temperature;BME280_humidity;BME280_pressure;Samples;Min_cycle;Max_cycle;Signal;HPM_P1;HPM_P2
2022/01/23 00:01:16;;;;;;;10.00;8.63;;;1.50;99.90;;;;;;5046779;28;20466;-56
2022/01/23 00:03:47;;;;;;;9.37;7.77;;;1.50;99.90;;;;;;5051289;28;20522;-60
2022/01/23 00:06:14;;;;;;;6.00;5.50;;;1.50;99.90;;;;;;5045466;28;20480;-56
2022/01/23 00:08:41;;;;;;;5.40;4.90;;;1.50;99.90;;;;;;5047112;28;20440;-58
2022/01/23 00:11:09;;;;;;;7.80;6.53;;;1.40;99.90;;;;;;5049022;28;21005;-56
2022/01/23 00:17:15;;;;;;;6.10;5.60;;;1.50;99.90;;;;;;5050389;28;20487;-58
2022/01/23 00:19:08;;;;;;;6.53;5.40;;;1.50;99.90;;;;;;5044453;28;20519;-56
2022/01/23 00:21:37;;;;;;;3.60;3.30;;;1.50;99.90;;;;;;5052689;28;20447;-56
2022/01/23 00:32:18;;;;;;;6.43;4.70;;;1.30;99.90;;;;;;5045790;28;21147;-58
2022/01/23 00:34:45;;;;;;;5.07;4.47;;;1.40;99.90;;;;;;5045764;28;20501;-58
2022/01/23 00:37:12;;;;;;;5.20;4.63;;;1.30;99.90;;;;;;5044656;28;20457;-57
2022/01/23 00:39:39;;;;;;;3.70;3.30;;;1.20;99.90;;;;;;5046487;28;20449;-60
2022/01/23 00:42:09;;;;;;;3.40;3.10;;;1.10;99.90;;;;;;5052450;28;20473;-57
2022/01/23 00:44:37;;;;;;;2.87;2.57;;;1.20;99.90;;;;;;5049602;28;20453;-57
2022/01/23 00:47:11;;;;;;;3.97;3.03;;;1.20;99.90;;;;;;5056310;28;20511;-57
2022/01/23 00:49:38;;;;;;;3.17;2.93;;;1.20;99.90;;;;;;5068742;28;20535;-56
2022/01/23 00:52:05;;;;;;;2.87;2.37;;;1.30;99.90;;;;;;5052219;28;20568;-56
2022/01/23 00:54:32;;;;;;;2.60;2.40;;;1.30;99.90;;;;;;5057383;28;20492;-56
2022/01/23 00:56:59;;;;;;;3.03;2.73;;;1.20;99.90;;;;;;5054073;28;20481;-56
2022/01/23 00:59:27;;;;;;;3.40;3.00;;;1.10;99.90;;;;;;5059701;28;20489;-56
2022/01/23 01:01:54;;;;;;;3.23;2.93;;;1.00;99.90;;;;;;5056890;28;20471;-56
2022/01/23 01:04:21;;;;;;;3.40;2.83;;;0.90;99.90;;;;;;5064183;28;20485;-56
2022/01/23 01:06:48;;;;;;;3.47;3.17;;;0.90;99.90;;;;;;5042599;28;20949;-57
2022/01/23 01:09:15;;;;;;;3.23;3.00;;;1.00;99.90;;;;;;5056618;28;20486;-55
2022/01/23 01:12:02;;;;;;;4.43;3.60;;;1.10;99.90;;;;;;5060837;28;20524;-57
2022/01/23 01:17:38;;;;;;;3.20;2.90;;;1.20;99.90;;;;;;5000818;28;20848;-57
2022/01/23 01:31:08;;;;;;;10.40;8.37;;;1.20;99.90;;;;;;5063218;28;20560;-56
2022/01/23 01:33:43;;;;;;;14.00;12.60;;;0.80;99.90;;;;;;5054968;28;20880;-56
2022/01/23 01:36:22;;;;;;;14.43;10.63;;;0.70;99.90;;;;;;5057765;28;20516;-56
2022/01/23 01:38:50;;;;;;;14.33;10.43;;;0.60;99.90;;;;;;5068670;28;21777;-56
2022/01/23 01:41:19;;;;;;;13.90;10.03;;;0.60;99.90;;;;;;5056298;28;20452;-57
2022/01/23 01:43:46;;;;;;;11.43;10.30;;;0.70;99.90;;;;;;5055378;28;20455;-57
2022/01/23 01:46:14;;;;;;;15.53;10.00;;;0.70;99.90;;;;;;5065639;28;20509;-57
2022/01/23 01:48:42;;;;;;;10.43;9.10;;;0.80;99.90;;;;;;5063906;28;20470;-55
2022/01/23 01:51:14;;;;;;;12.63;10.83;;;0.90;99.90;;;;;;5054870;28;20507;-57
2022/01/23 01:53:42;;;;;;;16.87;11.27;;;0.90;99.90;;;;;;5061048;28;20457;-55
2022/01/23 01:56:09;;;;;;;25.67;15.30;;;1.00;99.90;;;;;;5074036;22;20552;-84
2022/01/23 02:09:44;;;;;;;21.80;14.77;;;0.80;99.90;;;;;;5040425;28;20461;-85
2022/01/23 02:12:36;;;;;;;17.23;12.40;;;0.90;99.90;;;;;;5031335;28;20919;-86
2022/01/23 02:15:39;;;;;;;21.33;13.10;;;0.90;99.90;;;;;;5025143;28;21034;-85
2022/01/23 02:18:22;;;;;;;22.23;13.77;;;1.00;99.90;;;;;;5025803;28;20446;-84
2022/01/23 02:23:59;;;;;;;25.90;15.10;;;1.10;99.90;;;;;;5038487;28;20491;-85
2022/01/23 02:51:36;;;;;;;20.00;13.90;;;0.50;99.90;;;;;;5029700;28;20587;-85
2022/01/23 02:54:25;;;;;;;21.40;14.10;;;0.60;99.90;;;;;;5032669;28;20456;-84
2022/01/23 02:56:55;;;;;;;16.63;13.63;;;0.80;99.90;;;;;;5019570;28;20506;-85
2022/01/23 02:59:24;;;;;;;18.60;13.43;;;0.90;99.90;;;;;;5040901;28;20463;-85
2022/01/23 03:02:27;;;;;;;15.80;14.10;;;0.90;99.90;;;;;;5039074;28;20811;-84
2022/01/23 03:05:00;;;;;;;18.63;13.50;;;1.00;99.90;;;;;;5032242;28;20821;-85
2022/01/23 03:07:51;;;;;;;18.80;13.50;;;1.00;99.90;;;;;;5032532;28;20939;-85
2022/01/23 03:10:23;;;;;;;19.20;14.70;;;1.10;99.90;;;;;;5041488;28;20446;-85
2022/01/23 03:27:03;;;;;;;30.83;15.47;;;1.20;99.90;;;;;;5026334;28;20438;-85
2022/01/23 03:29:50;;;;;;;20.93;14.10;;;1.30;99.90;;;;;;5027806;28;21266;-85
2022/01/23 03:32:23;;;;;;;29.67;15.60;;;1.30;99.90;;;;;;5027443;28;20939;-85
2022/01/23 03:34:50;;;;;;;28.93;16.33;;;1.10;99.90;;;;;;5040717;28;20434;-85
2022/01/23 03:37:17;;;;;;;23.40;15.97;;;1.10;99.90;;;;;;5043986;28;20477;-85
2022/01/23 03:39:44;;;;;;;57.30;19.20;;;1.10;99.90;;;;;;5027064;28;20512;-84
2022/01/23 03:42:12;;;;;;;51.17;21.87;;;1.10;99.90;;;;;;5026834;28;20494;-85
2022/01/23 03:44:45;;;;;;;76.07;21.27;;;0.90;99.90;;;;;;5033367;28;20451;-85
2022/01/23 03:47:21;;;;;;;45.80;18.83;;;0.80;99.90;;;;;;5028383;28;20450;-85
2022/01/23 03:49:48;;;;;;;55.97;22.10;;;0.80;99.90;;;;;;5024710;28;20454;-85
2022/01/23 03:52:16;;;;;;;24.20;17.63;;;0.70;99.90;;;;;;5028869;28;21037;-85
2022/01/23 03:54:44;;;;;;;26.47;17.80;;;0.70;99.90;;;;;;5029740;28;20448;-85
2022/01/23 03:57:12;;;;;;;23.20;17.73;;;0.80;99.90;;;;;;5031405;28;20449;-85
2022/01/23 03:59:39;;;;;;;29.80;18.37;;;0.90;99.90;;;;;;5036955;28;20939;-85
2022/01/23 04:02:07;;;;;;;19.57;14.67;;;1.00;99.90;;;;;;5034386;28;20493;-85
2022/01/23 04:04:41;;;;;;;21.90;15.33;;;1.10;99.90;;;;;;5037056;28;20472;-85
2022/01/23 04:07:14;;;;;;;24.10;15.97;;;1.10;99.90;;;;;;5029846;28;20818;-85
2022/01/23 04:09:42;;;;;;;20.97;16.30;;;1.20;99.90;;;;;;5036795;28;20958;-85
2022/01/23 04:12:16;;;;;;;34.93;16.70;;;1.20;99.90;;;;;;5039656;28;20994;-85
2022/01/23 04:14:50;;;;;;;25.93;16.87;;;1.20;99.90;;;;;;5030468;28;20458;-85
2022/01/23 04:20:26;;;;;;;23.90;16.73;;;1.20;99.90;;;;;;5032710;28;20936;-85
2022/01/23 04:34:10;;;;;;;23.13;17.47;;;1.40;99.90;;;;;;5034781;28;20552;-85
2022/01/23 04:45:24;;;;;;;25.10;15.93;;;1.50;99.90;;;;;;5019802;28;20458;-85
2022/01/23 05:01:52;;;;;;;36.77;23.57;;;1.50;99.90;;;;;;5026774;28;20903;-84
2022/01/23 05:04:22;;;;;;;24.60;17.33;;;1.40;99.90;;;;;;5037854;28;20449;-85
2022/01/23 05:06:59;;;;;;;26.80;18.97;;;1.50;99.90;;;;;;5035968;28;20443;-85
2022/01/23 05:09:26;;;;;;;36.93;18.47;;;1.50;99.90;;;;;;5039646;28;20481;-84
2022/01/23 05:11:56;;;;;;;55.07;20.17;;;1.40;99.90;;;;;;5037972;28;20513;-85
2022/01/23 05:14:29;;;;;;;28.83;18.30;;;1.20;99.90;;;;;;5037183;28;20449;-84
2022/01/23 05:16:56;;;;;;;42.27;18.10;;;1.20;99.90;;;;;;5022507;28;20453;-85
2022/01/23 05:19:24;;;;;;;58.27;20.60;;;1.20;99.90;;;;;;5036332;28;20462;-85
2022/01/23 05:22:05;;;;;;;74.03;20.43;;;1.20;99.90;;;;;;5041031;28;20534;-85
2022/01/23 05:24:36;;;;;;;81.07;22.90;;;1.10;99.90;;;;;;5033012;28;20476;-86
2022/01/23 05:27:07;;;;;;;25.87;16.70;;;1.00;99.90;;;;;;5040286;28;20453;-85
2022/01/23 05:29:34;;;;;;;25.50;16.80;;;1.10;99.90;;;;;;5047581;28;20469;-85
2022/01/23 05:32:01;;;;;;;24.17;18.23;;;1.10;99.90;;;;;;5029701;28;20551;-85
2022/01/23 05:34:30;;;;;;;30.73;17.90;;;1.20;99.90;;;;;;5034849;28;20443;-85
2022/01/23 05:36:57;;;;;;;30.53;17.50;;;1.20;99.90;;;;;;5044626;28;20446;-86
2022/01/23 05:39:26;;;;;;;30.50;18.17;;;1.30;99.90;;;;;;5046884;28;20516;-85
2022/01/23 05:41:58;;;;;;;24.90;17.73;;;1.30;99.90;;;;;;5029035;28;20469;-85
2022/01/23 05:44:26;;;;;;;25.70;15.80;;;1.30;99.90;;;;;;5039106;28;20961;-85
2022/01/23 05:46:53;;;;;;;27.03;17.97;;;1.40;99.90;;;;;;5041913;28;20588;-85
2022/01/23 05:49:20;;;;;;;30.77;17.10;;;1.40;99.90;;;;;;5034244;28;20452;-85
2022/01/23 05:51:48;;;;;;;26.20;15.60;;;1.40;99.90;;;;;;5037963;28;20491;-85
2022/01/23 05:54:15;;;;;;;20.70;15.23;;;1.30;99.90;;;;;;5037596;28;20453;-85
2022/01/23 05:56:42;;;;;;;23.37;16.00;;;1.10;99.90;;;;;;5025316;28;20875;-84
2022/01/23 05:59:09;;;;;;;21.57;15.40;;;1.10;99.90;;;;;;5034947;28;20870;-85
2022/01/23 06:01:36;;;;;;;22.70;15.70;;;1.20;99.90;;;;;;5041957;28;21289;-85
2022/01/23 06:04:03;;;;;;;27.40;15.23;;;1.20;99.90;;;;;;5042352;28;20495;-85
2022/01/23 06:06:30;;;;;;;27.03;17.53;;;1.30;99.90;;;;;;5032890;28;20486;-85
2022/01/23 06:08:58;;;;;;;33.73;20.10;;;1.40;99.90;;;;;;5032434;28;20523;-85
2022/01/23 06:11:25;;;;;;;30.60;20.10;;;1.40;99.90;;;;;;5046695;28;20542;-85
2022/01/23 06:13:52;;;;;;;33.50;18.70;;;1.40;99.90;;;;;;5033539;28;20477;-85
2022/01/23 06:16:19;;;;;;;45.60;20.33;;;1.50;99.90;;;;;;5035521;28;20540;-85
2022/01/23 06:18:46;;;;;;;28.07;17.83;;;1.50;99.90;;;;;;5038283;28;20942;-85
2022/01/23 06:21:18;;;;;;;31.97;18.77;;;1.40;99.90;;;;;;5031129;28;20495;-84
2022/01/23 06:23:47;;;;;;;31.73;18.87;;;1.50;99.90;;;;;;5031660;28;20446;-85
2022/01/23 06:26:17;;;;;;;25.13;18.80;;;1.50;99.90;;;;;;5038990;28;20459;-85
2022/01/23 06:28:51;;;;;;;23.27;17.73;;;1.50;99.90;;;;;;5022681;28;20544;-85
2022/01/23 06:31:18;;;;;;;30.80;18.00;;;1.50;99.90;;;;;;5018216;28;21088;-84
2022/01/23 06:33:45;;;;;;;32.10;18.50;;;1.50;99.90;;;;;;5023118;28;20959;-84
2022/01/23 06:36:12;;;;;;;39.03;19.57;;;1.50;99.90;;;;;;5031792;28;20982;-84
2022/01/23 06:38:39;;;;;;;25.07;17.53;;;1.50;99.90;;;;;;5037667;28;20454;-85
2022/01/23 06:41:06;;;;;;;24.43;16.87;;;1.50;99.90;;;;;;5028680;28;20642;-84
2022/01/23 06:43:34;;;;;;;24.17;16.20;;;1.40;99.90;;;;;;5029561;28;20923;-84
2022/01/23 06:46:01;;;;;;;29.77;20.27;;;1.40;99.90;;;;;;5034705;28;20443;-84
2022/01/23 06:48:29;;;;;;;24.17;18.67;;;1.40;99.90;;;;;;5024240;28;20551;-84
2022/01/23 06:50:55;;;;;;;33.20;19.53;;;1.40;99.90;;;;;;5020575;28;20536;-84
2022/01/23 06:53:22;;;;;;;31.13;16.70;;;1.40;99.90;;;;;;5025454;28;20565;-83
2022/01/23 06:55:49;;;;;;;27.10;16.60;;;1.40;99.90;;;;;;5022076;28;20515;-84
2022/01/23 06:58:16;;;;;;;37.43;18.00;;;1.10;99.90;;;;;;5026918;28;20535;-84
2022/01/23 07:00:45;;;;;;;24.83;17.43;;;0.80;99.90;;;;;;5044564;28;20465;-84
2022/01/23 07:03:12;;;;;;;24.97;17.10;;;0.60;99.90;;;;;;5022202;28;21171;-83
2022/01/23 07:05:39;;;;;;;24.20;16.57;;;0.50;99.90;;;;;;5024859;28;20450;-85
2022/01/23 07:08:07;;;;;;;25.00;16.57;;;0.60;99.90;;;;;;5028731;28;20962;-84
2022/01/23 07:10:34;;;;;;;21.47;14.93;;;0.70;99.90;;;;;;5038404;28;20464;-84
2022/01/23 07:13:01;;;;;;;18.77;12.83;;;0.90;99.90;;;;;;5034043;28;20481;-84
2022/01/23 07:15:28;;;;;;;19.50;13.77;;;0.90;99.90;;;;;;5040364;28;20473;-84
2022/01/23 07:17:56;;;;;;;17.30;13.23;;;0.90;99.90;;;;;;5034138;28;20444;-84
2022/01/23 07:20:23;;;;;;;20.50;13.40;;;1.00;99.90;;;;;;5033816;28;20543;-84
2022/01/23 07:22:50;;;;;;;14.63;11.97;;;0.90;99.90;;;;;;5022585;28;20870;-85
2022/01/23 07:25:17;;;;;;;21.57;14.17;;;1.00;99.90;;;;;;5028681;28;20464;-84
2022/01/23 07:27:49;;;;;;;19.87;13.50;;;0.90;99.90;;;;;;5029095;28;20446;-84
2022/01/23 07:30:29;;;;;;;26.33;16.50;;;0.90;99.90;;;;;;5020936;28;20447;-85
2022/01/23 07:32:58;;;;;;;55.80;18.50;;;1.00;99.90;;;;;;5026018;28;20485;-84
2022/01/23 07:35:25;;;;;;;39.70;17.17;;;0.90;99.90;;;;;;5025914;28;20481;-84
2022/01/23 07:37:52;;;;;;;20.63;14.73;;;0.90;99.90;;;;;;5027159;28;20450;-84
2022/01/23 07:42:59;;;;;;;14.40;9.83;;;0.90;99.90;;;;;;5045646;28;20476;-55
2022/01/23 07:45:26;;;;;;;11.63;8.30;;;0.80;99.90;;;;;;5049481;28;20547;-56
2022/01/23 07:47:53;;;;;;;10.00;7.40;;;0.80;99.90;;;;;;5048981;28;20998;-55
2022/01/23 07:50:21;;;;;;;9.87;7.77;;;0.80;99.90;;;;;;5048968;28;20988;-55
2022/01/23 07:52:48;;;;;;;11.73;8.50;;;0.70;99.90;;;;;;5047413;28;21008;-55
2022/01/23 07:58:54;;;;;;;20.60;9.90;;;0.70;99.90;;;;;;5073825;28;20463;-82
2022/01/23 08:01:21;;;;;;;10.63;9.10;;;0.40;99.90;;;;;;5053049;23;20527;-55
2022/01/23 08:03:48;;;;;;;12.33;10.13;;;0.40;99.90;;;;;;5052650;28;20439;-55
2022/01/23 08:06:16;;;;;;;15.00;10.73;;;0.30;99.90;;;;;;5040249;28;20609;-55
2022/01/23 08:08:44;;;;;;;11.83;9.70;;;0.20;99.90;;;;;;5049071;28;20448;-57
2022/01/23 08:11:11;;;;;;;16.77;12.07;;;0.30;99.90;;;;;;5047804;28;20456;-55
2022/01/23 08:13:38;;;;;;;28.87;15.60;;;0.40;99.90;;;;;;5043483;28;20515;-55
2022/01/23 08:16:06;;;;;;;25.83;18.30;;;0.60;99.90;;;;;;5044749;28;20499;-55
2022/01/23 08:18:32;;;;;;;25.90;17.70;;;0.70;99.90;;;;;;5043075;28;20473;-58
2022/01/23 08:20:59;;;;;;;42.40;21.70;;;0.70;99.90;;;;;;5045242;28;20483;-55
2022/01/23 08:23:28;;;;;;;100.90;27.03;;;0.70;99.90;;;;;;5046942;28;20474;-55
2022/01/23 08:25:55;;;;;;;56.87;23.60;;;0.70;99.90;;;;;;5044708;28;21026;-56
2022/01/23 08:28:21;;;;;;;29.87;19.23;;;0.70;99.90;;;;;;5043487;28;20895;-55
2022/01/23 08:30:48;;;;;;;30.43;19.03;;;0.70;99.90;;;;;;5047816;28;20979;-55
2022/01/23 08:33:15;;;;;;;30.10;19.00;;;0.70;99.90;;;;;;5043140;28;20475;-55
2022/01/23 08:35:45;;;;;;;35.07;21.00;;;0.70;99.90;;;;;;5048996;28;20467;-55
2022/01/23 08:38:13;;;;;;;40.20;22.10;;;0.80;99.90;;;;;;5048115;28;20925;-62
2022/01/23 08:41:49;;;;;;;31.13;20.43;;;0.90;99.90;;;;;;5043797;28;20527;-57
2022/01/23 08:43:35;;;;;;;30.50;21.17;;;1.00;99.90;;;;;;5048474;28;20525;-59
2022/01/23 08:46:02;;;;;;;23.83;18.90;;;1.10;99.90;;;;;;5039966;28;20525;-55
2022/01/23 08:48:29;;;;;;;33.20;20.33;;;1.20;99.90;;;;;;5040286;28;20476;-55
2022/01/23 08:50:56;;;;;;;35.33;22.20;;;1.20;99.90;;;;;;5052926;28;20492;-56
2022/01/23 08:53:23;;;;;;;33.47;23.57;;;1.20;99.90;;;;;;5059400;28;20544;-56
2022/01/23 08:55:51;;;;;;;33.40;24.60;;;1.20;99.90;;;;;;5040978;28;20497;-55
2022/01/23 08:58:18;;;;;;;41.47;25.43;;;1.20;99.90;;;;;;5041148;28;20508;-55
2022/01/23 09:00:45;;;;;;;42.23;25.43;;;1.20;99.90;;;;;;5045907;28;20456;-56
2022/01/23 09:03:12;;;;;;;35.30;26.33;;;1.30;99.90;;;;;;5050670;28;20448;-55
2022/01/23 09:05:39;;;;;;;33.17;23.80;;;1.40;99.90;;;;;;5050392;28;20522;-55
2022/01/23 09:08:06;;;;;;;38.17;24.30;;;1.40;99.90;;;;;;5048693;28;20527;-55
2022/01/23 09:10:40;;;;;;;39.90;26.73;;;1.50;99.90;;;;;;5053398;28;20506;-55
2022/01/23 09:13:15;;;;;;;41.33;25.97;;;1.40;99.90;;;;;;5052868;28;20483;-55
2022/01/23 09:15:42;;;;;;;49.47;29.50;;;1.30;99.90;;;;;;5049935;28;21019;-55
2022/01/23 09:18:09;;;;;;;38.80;26.73;;;1.20;99.90;;;;;;5048752;28;20507;-55
2022/01/23 09:20:36;;;;;;;34.40;24.77;;;1.10;99.90;;;;;;5049979;28;20480;-56
2022/01/23 09:23:03;;;;;;;39.87;25.50;;;1.10;99.90;;;;;;5056324;28;20461;-55
2022/01/23 09:25:30;;;;;;;39.33;24.63;;;1.10;99.90;;;;;;5051018;28;20534;-55
2022/01/23 09:28:03;;;;;;;43.00;27.70;;;1.20;99.90;;;;;;5053207;28;20492;-56
2022/01/23 09:30:35;;;;;;;61.63;46.20;;;1.20;99.90;;;;;;5052776;28;20479;-55
2022/01/23 09:33:03;;;;;;;47.30;32.90;;;1.30;99.90;;;;;;5053170;28;20482;-55
2022/01/23 09:35:30;;;;;;;42.53;34.07;;;1.40;99.90;;;;;;5053047;28;20469;-57
2022/01/23 09:37:57;;;;;;;38.63;26.90;;;1.40;99.90;;;;;;5058608;28;20907;-55
2022/01/23 09:40:25;;;;;;;38.37;27.10;;;1.50;99.90;;;;;;5050006;28;20477;-55
2022/01/23 09:42:59;;;;;;;53.87;35.30;;;1.60;99.90;;;;;;5042315;28;20469;-55
2022/01/23 09:45:27;;;;;;;46.47;29.97;;;1.50;99.90;;;;;;5050812;28;20926;-55
2022/01/23 09:47:56;;;;;;;50.40;34.37;;;1.60;99.90;;;;;;5058183;28;20548;-55
2022/01/23 09:50:23;;;;;;;52.10;37.17;;;1.50;99.90;;;;;;5049520;28;20457;-63
2022/01/23 09:52:54;;;;;;;50.57;34.00;;;1.60;99.90;;;;;;5058819;28;20480;-55
2022/01/23 09:55:25;;;;;;;42.33;31.00;;;1.70;99.90;;;;;;5051859;28;20552;-55
2022/01/23 09:57:52;;;;;;;34.50;25.43;;;1.70;99.90;;;;;;5047159;28;20452;-55
2022/01/23 10:00:24;;;;;;;28.60;23.30;;;1.80;99.90;;;;;;5048893;28;20880;-56
2022/01/23 10:02:51;;;;;;;26.40;22.60;;;1.80;99.90;;;;;;5051548;28;20455;-55
2022/01/23 10:05:20;;;;;;;24.47;19.30;;;1.90;99.90;;;;;;5054758;28;20553;-55
2022/01/23 10:07:47;;;;;;;30.53;21.07;;;1.90;99.90;;;;;;5052674;28;20476;-56
2022/01/23 10:10:19;;;;;;;30.83;22.13;;;2.00;99.90;;;;;;5055237;28;20526;-56
2022/01/23 10:12:49;;;;;;;38.53;26.53;;;2.00;99.90;;;;;;5048960;28;20480;-56
2022/01/23 10:15:17;;;;;;;36.50;26.73;;;2.10;99.90;;;;;;5051404;28;20508;-55
2022/01/23 10:17:44;;;;;;;32.30;22.87;;;2.00;99.90;;;;;;5049946;28;20478;-56
2022/01/23 10:20:13;;;;;;;27.73;20.57;;;2.00;99.90;;;;;;5053141;28;20437;-56
2022/01/23 10:22:45;;;;;;;34.17;23.93;;;2.10;99.90;;;;;;5053297;28;20839;-55
2022/01/23 10:25:13;;;;;;;26.67;21.10;;;2.10;99.90;;;;;;5049649;28;20466;-55
2022/01/23 10:27:53;;;;;;;31.50;21.03;;;2.20;99.90;;;;;;5049454;28;20544;-55
2022/01/23 10:30:24;;;;;;;30.90;22.13;;;2.20;99.90;;;;;;5051727;28;20964;-55
2022/01/23 10:33:10;;;;;;;26.40;20.43;;;2.20;99.90;;;;;;5049961;28;20507;-55
2022/01/23 10:35:57;;;;;;;25.33;19.40;;;2.20;99.90;;;;;;5049222;28;20548;-62
2022/01/23 10:38:29;;;;;;;30.00;21.93;;;2.20;99.90;;;;;;5054213;28;21017;-55
2022/01/23 10:41:27;;;;;;;24.57;19.80;;;2.20;99.90;;;;;;5054479;28;20836;-55
2022/01/23 10:49:56;;;;;;;24.23;20.03;;;2.30;99.90;;;;;;5044221;28;20467;-54
2022/01/23 10:52:28;;;;;;;24.63;18.60;;;2.40;99.90;;;;;;5052922;28;21180;-54
2022/01/23 10:54:57;;;;;;;29.00;22.00;;;2.30;99.90;;;;;;5046828;28;20452;-54
2022/01/23 10:57:24;;;;;;;26.20;20.23;;;2.20;99.90;;;;;;5050146;28;20481;-55
2022/01/23 10:59:52;;;;;;;24.33;20.20;;;2.20;99.90;;;;;;5047460;28;20984;-54
2022/01/23 11:02:22;;;;;;;29.30;18.90;;;2.00;99.90;;;;;;5055326;28;20446;-54
2022/01/23 11:05:07;;;;;;;20.27;15.40;;;1.90;99.90;;;;;;5058688;28;20438;-54
2022/01/23 11:07:35;;;;;;;14.83;12.50;;;1.60;99.90;;;;;;5047772;28;20547;-55
2022/01/23 11:10:07;;;;;;;21.40;16.00;;;1.70;99.90;;;;;;5051506;28;20561;-55
2022/01/23 11:18:32;;;;;;;16.67;12.40;;;1.70;99.90;;;;;;5051275;28;20465;-56
2022/01/23 11:20:59;;;;;;;16.87;12.87;;;1.80;99.90;;;;;;5042993;28;20433;-55
2022/01/23 11:23:28;;;;;;;14.77;13.20;;;1.90;99.90;;;;;;5052187;28;20433;-54
2022/01/23 11:26:10;;;;;;;17.70;13.90;;;2.10;99.90;;;;;;5050568;28;20535;-55
2022/01/23 11:28:41;;;;;;;12.70;10.37;;;2.20;99.90;;;;;;5049512;28;20446;-55
2022/01/23 11:31:11;;;;;;;11.03;9.87;;;2.30;99.90;;;;;;5048265;28;20458;-56
2022/01/23 11:33:38;;;;;;;14.90;11.40;;;2.40;99.90;;;;;;5054990;28;20499;-55
2022/01/23 11:36:06;;;;;;;12.30;10.03;;;2.50;99.90;;;;;;5049819;28;20504;-55
2022/01/23 11:38:34;;;;;;;10.00;8.87;;;2.50;99.90;;;;;;5045536;28;20481;-55
2022/01/23 11:54:58;;;;;;;15.10;11.47;;;2.60;99.90;;;;;;5047153;28;20961;-55
2022/01/23 11:57:47;;;;;;;15.63;10.70;;;2.70;99.90;;;;;;5044889;28;20518;-60
2022/01/23 12:00:20;;;;;;;11.90;8.90;;;2.80;99.90;;;;;;5040445;28;20515;-56
2022/01/23 12:03:15;;;;;;;12.40;9.33;;;2.80;99.90;;;;;;5048636;28;20457;-55
2022/01/23 12:05:44;;;;;;;11.60;9.30;;;2.90;99.90;;;;;;5055242;28;20511;-54
2022/01/23 12:08:32;;;;;;;10.20;8.80;;;2.90;99.90;;;;;;5046066;28;20517;-55
2022/01/23 12:17:20;;;;;;;9.10;8.20;;;2.90;99.90;;;;;;5042215;28;20473;-54
2022/01/23 12:19:57;;;;;;;8.73;7.50;;;3.00;99.90;;;;;;5040412;28;20441;-59
2022/01/23 12:22:36;;;;;;;10.77;8.80;;;3.10;99.90;;;;;;5048109;28;20455;-54
2022/01/23 12:25:10;;;;;;;11.70;7.37;;;3.10;99.90;;;;;;5044152;28;20464;-54
2022/01/23 12:27:38;;;;;;;8.50;7.67;;;3.20;99.90;;;;;;5040741;28;20465;-61
2022/01/23 12:30:30;;;;;;;8.47;7.63;;;3.20;99.90;;;;;;5044606;28;21081;-55
2022/01/23 12:33:21;;;;;;;16.70;15.03;;;3.30;99.90;;;;;;5048840;28;20448;-55
2022/01/23 12:35:50;;;;;;;9.90;8.90;;;3.30;99.90;;;;;;5054831;28;20493;-56
2022/01/23 12:38:18;;;;;;;9.30;7.73;;;3.40;99.90;;;;;;5044081;28;21187;-61
2022/01/23 12:40:47;;;;;;;8.67;7.77;;;3.40;99.90;;;;;;5056131;28;20507;-55
2022/01/23 12:43:17;;;;;;;8.53;7.40;;;3.20;99.90;;;;;;5048183;28;20826;-55
2022/01/23 12:45:47;;;;;;;10.20;8.53;;;3.20;99.90;;;;;;5051490;28;20482;-57
2022/01/23 12:48:47;;;;;;;7.67;6.87;;;3.20;99.90;;;;;;5049586;28;21086;-55
2022/01/23 12:51:37;;;;;;;10.00;8.07;;;3.30;99.90;;;;;;5052132;28;20456;-55
2022/01/23 12:54:13;;;;;;;7.03;6.33;;;3.10;99.90;;;;;;5052818;28;20490;-55
2022/01/23 12:56:43;;;;;;;10.50;7.10;;;3.20;99.90;;;;;;5047315;28;20903;-56
2022/01/23 12:59:14;;;;;;;13.10;10.33;;;3.20;99.90;;;;;;5047522;28;20813;-55
2022/01/23 13:01:44;;;;;;;14.17;11.90;;;3.20;99.90;;;;;;5054272;28;20485;-55
2022/01/23 13:04:13;;;;;;;17.83;13.37;;;3.20;99.90;;;;;;5058472;28;20463;-56
2022/01/23 13:06:50;;;;;;;20.07;15.50;;;3.20;99.90;;;;;;5053037;28;20462;-55
2022/01/23 13:09:28;;;;;;;18.53;14.77;;;3.20;99.90;;;;;;5051573;28;20448;-55
2022/01/23 13:12:04;;;;;;;18.20;15.00;;;3.20;99.90;;;;;;5058342;28;20503;-55
2022/01/23 13:14:39;;;;;;;17.60;14.07;;;3.20;99.90;;;;;;5052422;28;20480;-55
2022/01/23 13:17:26;;;;;;;21.57;15.87;;;3.10;99.90;;;;;;5048629;28;20535;-55
2022/01/23 13:31:07;;;;;;;18.50;14.97;;;3.00;99.90;;;;;;5052860;28;20505;-55
2022/01/23 13:33:34;;;;;;;20.37;14.90;;;3.10;99.90;;;;;;5055232;28;20485;-55
2022/01/23 13:36:08;;;;;;;17.57;13.53;;;3.10;99.90;;;;;;5055108;28;20463;-55
2022/01/23 13:38:37;;;;;;;14.13;12.30;;;3.10;99.90;;;;;;5050764;28;20823;-56
2022/01/23 13:41:19;;;;;;;15.93;12.50;;;3.10;99.90;;;;;;5055613;28;20496;-55
2022/01/23 13:52:35;;;;;;;14.40;12.10;;;3.00;99.90;;;;;;5046531;28;20486;-55
2022/01/23 13:58:14;;;;;;;19.07;13.23;;;3.00;99.90;;;;;;5051391;28;20451;-54
2022/01/23 14:00:41;;;;;;;12.70;11.37;;;3.00;99.90;;;;;;5057982;28;21015;-55
2022/01/23 14:03:10;;;;;;;13.73;12.00;;;3.00;99.90;;;;;;5043904;23;20501;-56
2022/01/23 14:05:37;;;;;;;12.90;10.90;;;3.00;99.90;;;;;;5034290;28;20442;-57
2022/01/23 14:08:06;;;;;;;10.07;8.50;;;3.00;99.90;;;;;;5034497;28;20460;-56
2022/01/23 14:10:35;;;;;;;7.90;7.10;;;3.10;99.90;;;;;;5038154;28;20984;-55
2022/01/23 14:13:08;;;;;;;7.57;6.80;;;3.00;99.90;;;;;;5036592;28;20490;-55
2022/01/23 14:15:35;;;;;;;9.43;7.33;;;3.00;99.90;;;;;;5034374;28;20561;-55
2022/01/23 14:18:05;;;;;;;11.97;8.27;;;3.00;99.90;;;;;;5033892;28;20592;-55
2022/01/23 14:20:35;;;;;;;7.70;7.00;;;3.00;99.90;;;;;;5030206;28;20472;-55
2022/01/23 14:23:14;;;;;;;7.63;6.93;;;3.00;99.90;;;;;;5036530;28;21061;-55
2022/01/23 14:25:46;;;;;;;6.80;6.20;;;2.90;99.90;;;;;;5035552;28;20507;-55
2022/01/23 14:28:16;;;;;;;8.77;6.80;;;2.90;99.90;;;;;;5034670;28;20867;-55
2022/01/23 14:30:45;;;;;;;9.20;7.13;;;2.90;99.90;;;;;;5032525;28;20447;-56
2022/01/23 14:33:14;;;;;;;10.30;7.83;;;2.90;99.90;;;;;;5034569;28;20466;-55
2022/01/23 14:35:41;;;;;;;9.90;7.30;;;2.90;99.90;;;;;;5040062;28;20486;-54
2022/01/23 14:38:12;;;;;;;11.17;7.50;;;2.80;99.90;;;;;;5032041;28;20537;-55
2022/01/23 14:40:40;;;;;;;10.53;8.03;;;2.70;99.90;;;;;;5035299;28;20511;-56
2022/01/23 14:43:10;;;;;;;8.83;7.93;;;2.50;99.90;;;;;;5034203;28;20518;-54
2022/01/23 14:45:39;;;;;;;8.53;7.23;;;2.50;99.90;;;;;;5035522;28;20466;-55
2022/01/23 14:48:07;;;;;;;9.20;7.47;;;2.50;99.90;;;;;;5036309;28;20473;-55
2022/01/23 14:50:36;;;;;;;10.23;7.83;;;2.40;99.90;;;;;;5037281;28;20499;-56
2022/01/23 14:53:08;;;;;;;8.70;7.80;;;2.40;99.90;;;;;;5036971;28;20465;-54
2022/01/23 14:55:38;;;;;;;10.80;8.80;;;2.40;99.90;;;;;;5034512;28;20514;-55
2022/01/23 14:58:05;;;;;;;9.83;8.10;;;2.30;99.90;;;;;;5025275;28;20435;-55
2022/01/23 15:00:33;;;;;;;10.77;8.30;;;2.30;99.90;;;;;;5033153;28;20447;-55
2022/01/23 15:03:02;;;;;;;10.50;8.53;;;2.30;99.90;;;;;;5040221;28;21032;-54
2022/01/23 15:05:32;;;;;;;12.90;8.50;;;2.30;99.90;;;;;;5031228;28;21229;-54
2022/01/23 15:08:00;;;;;;;8.93;7.93;;;2.30;99.90;;;;;;5032069;28;20963;-55
2022/01/23 15:10:27;;;;;;;8.93;7.53;;;2.30;99.90;;;;;;5032781;28;20535;-55
2022/01/23 15:12:56;;;;;;;10.33;8.23;;;2.20;99.90;;;;;;5033015;28;20527;-55
2022/01/23 15:15:22;;;;;;;9.20;8.30;;;2.20;99.90;;;;;;5030251;28;20486;-55
2022/01/23 15:17:49;;;;;;;11.93;8.43;;;2.20;99.90;;;;;;5036777;28;21034;-55
2022/01/23 15:20:17;;;;;;;8.37;7.20;;;2.20;99.90;;;;;;5037603;28;20467;-55
2022/01/23 15:22:44;;;;;;;15.27;12.10;;;2.10;99.90;;;;;;5035294;28;20548;-56
2022/01/23 15:25:13;;;;;;;11.30;8.80;;;2.10;99.90;;;;;;5031463;28;20470;-54
2022/01/23 15:27:41;;;;;;;15.07;9.33;;;2.00;99.90;;;;;;5033851;28;20793;-54
2022/01/23 15:30:12;;;;;;;13.43;9.10;;;1.90;99.90;;;;;;5033212;28;21183;-54
2022/01/23 15:32:40;;;;;;;9.37;8.40;;;2.00;99.90;;;;;;5034808;28;20454;-59
2022/01/23 15:35:08;;;;;;;11.60;9.00;;;1.90;99.90;;;;;;5039381;28;20520;-55
2022/01/23 15:37:37;;;;;;;13.93;8.73;;;1.90;99.90;;;;;;5030714;28;20875;-54
2022/01/23 15:40:07;;;;;;;7.37;5.73;;;1.90;99.90;;;;;;5030804;28;20992;-56
2022/01/23 15:42:34;;;;;;;5.93;4.60;;;1.90;99.90;;;;;;5033205;28;20901;-54
2022/01/23 15:45:01;;;;;;;5.30;4.17;;;1.90;99.90;;;;;;5037133;28;20457;-58
2022/01/23 15:47:29;;;;;;;6.40;5.00;;;2.00;99.90;;;;;;5030787;28;20535;-54
2022/01/23 15:49:56;;;;;;;5.83;5.23;;;2.00;99.90;;;;;;5038220;28;20474;-55
2022/01/23 15:52:23;;;;;;;8.77;5.90;;;2.00;99.90;;;;;;5030227;28;20494;-57
2022/01/23 15:54:51;;;;;;;6.47;5.87;;;2.00;99.90;;;;;;5031518;28;20534;-56
2022/01/23 15:57:18;;;;;;;6.20;5.47;;;2.00;99.90;;;;;;5029605;28;20450;-55